Etusivu
METAR-TAF:

METAR-TAF

Lentoasemat :

Kalmar, Ruotsi

Kalmarin lentoasema

Leveyspiiri: 56-44N, Pituuspiiri: 016-18E, korkeus merenpinnasta: 16 m

Tämänhetkinen sää

Tämä raportti tehtiin 44 minuuttia sitten, kello 01.20 UTC
Tuuli 4 kn etelästä/lounaasta
Lämpötila 2°C
Kosteus 100%
Ilmanpaine 1008 hPa
Näkyvyys: 1000 m
utua

METAR: ESMQ 250120Z AUTO 21004KT 1000 R16/P1500N R34/P1500N BR NCD 02/02 Q1008

Aika: 03:04 (02:04 UTC)

Sääennuste

Tämä raportti tehtiin 5 tuntia ja 34 minuuttia sitten, kello 20.30 UTC
Ennuste voimassa 24. päivästä klo 21 UTC - 24. päivään klo 23 UTC
Tuuli 5 kn etelästä
Näkyvyys 10 km tai enemmän
Hajanaisia pilviä 500 ft:n korkeudessa
Hajonneita pilviä 5000 ft:n korkeudessa
Ajoittain
24. päivästä klo 21 UTC - 24. päivään klo 23 UTC
Hajonneita pilviä 400 ft:n korkeudessa

TAF: ESMQ 242030Z 2421/2423 19005KT 9999 SCT005 BKN050 TEMPO 2421/2423 BKN004

Säähavainnot ja -ennusteet yli 4000 lentoasemalta (METAR- ja TAF-raportit).

Käytössä olevat sääasemat on merkitty karttaan keltaisilla ja punaisilla pisteillä.

Aseta hiiri pisteen päälle nähdäksesi sääaseman nimen.

Klikkaa sitten nähdäksesi säähavainnot ja -ennusteet.

Kartan vaihtaminen: klikkaa mustalla rastilla varustettuja vihreitä pisteitä, niin voit zoomata sisään; viivalla varustettua vihreää pistettä, niin voit zoomata ulos tai vihreitä nuolia, niin pääset viereisille kartoille.


METAR-TAF: